Time;durP1;ratioP1;P1;durP2;ratioP2;P2;SDS_P1;SDS_P2;PMS_P1;PMS_P2;Temp;Humidity;BMP_temperature;BMP_pressure;BME280_temperature;BME280_humidity;BME280_pressure;Samples;Min_cycle;Max_cycle;Signal;HPM_P1;HPM_P2
2021/07/30 00:01:30;;;;;;;33.95;12.95;;;;;;;21.74;71.36;94852.41;5086732;28;20044;-73
2021/07/30 00:03:57;;;;;;;36.67;13.00;;;;;;;21.72;71.30;94849.28;5068504;28;20076;-74
2021/07/30 00:06:26;;;;;;;35.28;13.93;;;;;;;21.70;72.02;94852.22;5086785;28;20040;-74
2021/07/30 00:08:53;;;;;;;39.92;14.70;;;;;;;21.69;71.07;94840.03;5087992;28;20051;-72
2021/07/30 00:11:19;;;;;;;38.15;11.65;;;;;;;21.75;70.93;94832.75;5088428;28;20040;-73
2021/07/30 00:13:46;;;;;;;32.28;12.27;;;;;;;21.71;70.90;94842.38;5069729;28;20044;-74
2021/07/30 00:16:13;;;;;;;42.45;12.15;;;;;;;21.71;71.23;94837.88;5087694;28;20107;-73
2021/07/30 00:18:40;;;;;;;32.58;12.38;;;;;;;21.69;71.08;94836.63;5090102;28;20048;-74
2021/07/30 00:21:07;;;;;;;27.33;11.82;;;;;;;21.68;70.96;94835.84;5089899;28;20040;-74
2021/07/30 00:23:33;;;;;;;28.63;12.40;;;;;;;21.58;71.66;94836.84;5086754;28;20048;-74
2021/07/30 00:26:01;;;;;;;36.28;12.02;;;;;;;21.52;71.45;94839.94;5087750;28;20486;-75
2021/07/30 00:28:28;;;;;;;33.58;12.98;;;;;;;21.51;71.85;94844.41;5088280;28;20048;-74
2021/07/30 00:30:55;;;;;;;43.90;12.93;;;;;;;21.35;72.33;94851.13;5085693;28;20062;-74
2021/07/30 00:33:22;;;;;;;31.77;11.80;;;;;;;21.37;72.39;94843.66;5086857;28;20040;-74
2021/07/30 00:35:49;;;;;;;31.98;14.63;;;;;;;21.34;72.41;94844.25;5085709;28;20055;-73
2021/07/30 00:38:16;;;;;;;43.95;13.95;;;;;;;21.33;71.70;94840.03;5086596;28;20047;-73
2021/07/30 00:40:43;;;;;;;29.10;12.85;;;;;;;21.30;71.64;94832.69;5088125;28;20493;-74
2021/07/30 00:43:10;;;;;;;35.60;12.02;;;;;;;21.24;71.62;94839.19;5087690;28;20059;-73
2021/07/30 00:45:38;;;;;;;40.25;12.85;;;;;;;21.18;72.37;94836.63;5087820;28;20040;-74
2021/07/30 00:48:05;;;;;;;34.65;11.70;;;;;;;21.22;72.20;94846.63;5090085;28;20039;-74
2021/07/30 00:50:33;;;;;;;42.40;12.77;;;;;;;21.19;73.60;94838.22;5088742;28;20044;-71
2021/07/30 00:53:00;;;;;;;34.88;13.10;;;;;;;21.12;72.99;94832.53;5086384;28;20048;-73
2021/07/30 00:55:27;;;;;;;33.70;13.43;;;;;;;21.08;73.57;94831.53;5087719;28;20074;-73
2021/07/30 00:57:54;;;;;;;28.98;14.27;;;;;;;21.03;73.18;94844.91;5087963;28;20127;-73
2021/07/30 01:00:21;;;;;;;21.98;11.75;;;;;;;20.91;73.79;94829.53;5088304;28;20051;-74
2021/07/30 01:02:48;;;;;;;34.28;12.82;;;;;;;20.84;74.56;94831.00;5086692;28;20036;-74
2021/07/30 01:05:15;;;;;;;30.63;13.95;;;;;;;20.82;75.04;94836.59;5086323;28;20040;-74
2021/07/30 01:07:42;;;;;;;25.33;11.02;;;;;;;20.71;75.10;94833.38;5085502;28;20113;-74
2021/07/30 01:10:09;;;;;;;35.05;13.43;;;;;;;20.69;75.43;94835.53;5088285;28;20509;-74
2021/07/30 01:12:36;;;;;;;34.47;13.68;;;;;;;20.43;77.66;94827.25;5087465;28;20044;-74
2021/07/30 01:15:05;;;;;;;35.45;16.13;;;;;;;20.29;77.77;94821.94;5085485;28;20528;-74
2021/07/30 01:17:31;;;;;;;28.58;12.50;;;;;;;20.32;77.07;94821.34;5086709;28;20043;-74
2021/07/30 01:19:59;;;;;;;33.00;12.68;;;;;;;20.42;76.75;94828.34;5086351;28;20561;-74
2021/07/30 01:22:38;;;;;;;32.75;13.48;;;;;;;20.39;76.65;94832.34;5087716;28;20109;-75
2021/07/30 01:25:05;;;;;;;36.13;13.68;;;;;;;20.43;76.37;94828.03;5086572;28;20032;-74
2021/07/30 01:27:32;;;;;;;38.00;14.20;;;;;;;20.47;75.94;94832.72;5090118;28;20036;-74
2021/07/30 01:29:58;;;;;;;36.78;13.98;;;;;;;20.56;75.51;94836.25;5090499;28;20036;-74
2021/07/30 01:32:25;;;;;;;31.75;14.30;;;;;;;20.61;75.87;94828.25;5093491;28;20509;-73
2021/07/30 01:34:52;;;;;;;33.05;13.38;;;;;;;20.65;75.48;94839.81;5089907;28;20089;-74
2021/07/30 01:37:19;;;;;;;46.03;15.13;;;;;;;20.59;74.80;94825.88;5090011;28;20048;-74
2021/07/30 01:39:45;;;;;;;37.90;13.20;;;;;;;20.62;74.66;94832.50;5090052;28;20105;-74
2021/07/30 01:42:12;;;;;;;35.03;13.73;;;;;;;20.57;74.65;94837.84;5094160;28;20043;-74
2021/07/30 01:44:39;;;;;;;29.25;12.60;;;;;;;20.51;74.44;94833.69;5089073;28;20044;-74
2021/07/30 01:47:07;;;;;;;35.13;14.18;;;;;;;20.46;74.54;94839.13;5090534;28;20058;-74
2021/07/30 01:49:34;;;;;;;36.30;14.80;;;;;;;20.38;75.31;94837.91;5090643;28;20050;-74
2021/07/30 01:52:01;;;;;;;35.63;12.85;;;;;;;20.25;75.71;94834.19;5091793;28;20040;-74
2021/07/30 01:54:28;;;;;;;28.73;13.27;;;;;;;20.23;76.28;94833.69;5089870;28;20036;-73
2021/07/30 01:56:54;;;;;;;37.53;15.15;;;;;;;20.21;76.12;94827.91;5090259;28;20081;-74
2021/07/30 01:59:21;;;;;;;27.77;11.50;;;;;;;20.10;75.98;94834.47;5092718;28;20036;-74
2021/07/30 02:01:48;;;;;;;33.45;14.80;;;;;;;20.02;75.98;94844.63;5090016;28;20040;-74
2021/07/30 02:04:18;;;;;;;30.15;13.65;;;;;;;19.91;76.68;94832.63;5090681;28;20135;-75
2021/07/30 02:06:45;;;;;;;28.27;11.45;;;;;;;19.85;76.88;94834.56;5089681;28;20421;-74
2021/07/30 02:09:11;;;;;;;29.88;12.75;;;;;;;19.78;77.05;94839.44;5089043;28;20048;-75
2021/07/30 02:11:51;;;;;;;39.00;13.13;;;;;;;19.70;77.50;94839.28;5090288;28;20040;-74
2021/07/30 02:14:18;;;;;;;31.88;13.88;;;;;;;19.57;78.19;94833.69;5089723;28;20052;-74
2021/07/30 02:16:50;;;;;;;32.00;13.77;;;;;;;19.58;78.39;94840.50;5091279;28;20131;-74
2021/07/30 02:19:18;;;;;;;34.20;13.93;;;;;;;19.60;78.45;94848.94;5089877;28;20050;-75
2021/07/30 02:21:46;;;;;;;35.55;14.18;;;;;;;19.66;78.21;94847.00;5089363;28;20058;-75
2021/07/30 02:24:14;;;;;;;29.33;14.02;;;;;;;19.68;77.46;94840.38;5089838;28;20529;-74
2021/07/30 02:26:41;;;;;;;34.45;13.27;;;;;;;19.64;77.43;94839.38;5088407;28;20113;-74
2021/07/30 02:29:07;;;;;;;34.58;14.02;;;;;;;19.68;77.50;94845.66;5088292;28;20050;-74
2021/07/30 02:31:34;;;;;;;37.53;15.95;;;;;;;19.70;78.07;94847.22;5092711;28;20040;-74
2021/07/30 02:34:01;;;;;;;33.88;16.20;;;;;;;19.71;78.20;94838.22;5089886;28;20044;-74
2021/07/30 02:36:28;;;;;;;38.20;17.50;;;;;;;19.66;78.52;94847.81;5093515;28;20044;-74
2021/07/30 02:38:55;;;;;;;36.33;17.27;;;;;;;19.67;77.86;94849.34;5092397;28;20043;-74
2021/07/30 02:41:22;;;;;;;36.08;17.65;;;;;;;19.67;78.10;94849.34;5091300;28;20046;-73
2021/07/30 02:43:49;;;;;;;43.17;17.25;;;;;;;19.79;77.83;94856.06;5091365;28;20082;-74
2021/07/30 02:46:19;;;;;;;38.35;17.88;;;;;;;19.81;77.38;94854.72;5097393;28;20028;-74
2021/07/30 02:48:46;;;;;;;42.53;17.88;;;;;;;19.78;77.24;94851.88;5092196;28;20115;-73
2021/07/30 02:51:13;;;;;;;45.30;16.33;;;;;;;19.75;77.59;94860.38;5093851;28;20036;-73
2021/07/30 02:53:40;;;;;;;41.05;16.38;;;;;;;19.75;78.51;94865.66;5095340;28;20039;-74
2021/07/30 02:56:08;;;;;;;41.58;16.88;;;;;;;19.79;78.56;94856.88;5091350;28;20042;-73
2021/07/30 02:58:37;;;;;;;37.40;16.17;;;;;;;19.76;78.19;94846.88;5091310;28;20044;-73
2021/07/30 03:01:05;;;;;;;46.35;16.58;;;;;;;19.82;78.10;94863.44;5091005;28;20113;-74
2021/07/30 03:03:32;;;;;;;28.48;15.30;;;;;;;19.89;78.71;94871.78;5090321;28;20036;-73
2021/07/30 03:06:00;;;;;;;45.90;18.40;;;;;;;19.81;79.73;94862.66;5073785;28;20044;-73
2021/07/30 03:08:29;;;;;;;34.53;14.88;;;;;;;19.85;79.30;94865.50;5090780;28;20509;-74
2021/07/30 03:10:56;;;;;;;39.03;16.00;;;;;;;19.85;79.25;94870.78;5090850;28;20056;-74
2021/07/30 03:13:24;;;;;;;32.13;15.80;;;;;;;19.87;79.37;94868.66;5090695;28;20044;-73
2021/07/30 03:15:55;;;;;;;44.30;15.57;;;;;;;19.80;79.59;94868.22;5086884;28;20044;-72
2021/07/30 03:18:22;;;;;;;36.40;16.02;;;;;;;19.83;79.79;94870.31;5091697;28;20044;-73
2021/07/30 03:20:49;;;;;;;35.95;14.93;;;;;;;19.80;80.04;94874.28;5090324;28;20105;-73
2021/07/30 03:23:16;;;;;;;49.90;17.08;;;;;;;19.76;79.80;94867.25;5089929;28;20040;-72
2021/07/30 03:25:43;;;;;;;49.80;16.85;;;;;;;19.75;79.67;94868.31;5073350;28;20036;-73
2021/07/30 03:28:10;;;;;;;40.00;15.80;;;;;;;19.71;79.06;94869.94;5091523;28;20044;-73
2021/07/30 03:30:37;;;;;;;33.88;14.93;;;;;;;19.68;79.12;94869.44;5089737;28;20467;-73
2021/07/30 03:33:04;;;;;;;48.40;17.95;;;;;;;19.72;79.84;94871.50;5091715;28;20562;-73
2021/07/30 03:35:31;;;;;;;55.65;16.42;;;;;;;19.58;80.03;94861.66;5087419;28;21162;-73
2021/07/30 03:37:58;;;;;;;53.72;15.98;;;;;;;19.58;79.74;94866.94;5090059;28;20055;-72
2021/07/30 03:40:25;;;;;;;50.60;18.23;;;;;;;19.62;79.83;94878.50;5090371;28;20055;-73
2021/07/30 03:42:52;;;;;;;45.33;16.38;;;;;;;19.57;80.18;94873.31;5090470;28;20487;-74
2021/07/30 03:45:18;;;;;;;36.70;15.85;;;;;;;19.54;79.76;94881.78;5088074;28;20039;-73
2021/07/30 03:47:45;;;;;;;33.53;15.60;;;;;;;19.52;79.90;94880.50;5088355;28;20048;-74
2021/07/30 03:50:12;;;;;;;46.45;17.73;;;;;;;19.47;79.98;94881.38;5089039;28;20051;-73
2021/07/30 03:52:39;;;;;;;40.67;15.65;;;;;;;19.47;80.53;94886.66;5088233;28;20048;-73
2021/07/30 03:55:06;;;;;;;37.78;14.52;;;;;;;19.46;80.24;94882.41;5088461;28;20429;-73
2021/07/30 03:57:34;;;;;;;38.28;15.35;;;;;;;19.47;81.02;94881.38;5092640;28;20044;-74
2021/07/30 04:00:00;;;;;;;39.88;15.98;;;;;;;19.44;80.97;94887.97;5090975;28;20051;-74
2021/07/30 04:02:32;;;;;;;31.98;16.65;;;;;;;19.43;80.97;94880.38;5089962;28;20525;-73
2021/07/30 04:04:59;;;;;;;33.72;14.77;;;;;;;19.47;81.46;94889.28;5090107;28;20493;-73
2021/07/30 04:07:26;;;;;;;30.80;14.95;;;;;;;19.47;81.16;94889.28;5091482;28;20040;-73
2021/07/30 04:09:54;;;;;;;35.00;15.38;;;;;;;19.50;80.99;94888.72;5092217;28;20040;-74
2021/07/30 04:12:22;;;;;;;40.55;15.95;;;;;;;19.59;81.31;94888.84;5090961;28;20536;-73
2021/07/30 04:14:49;;;;;;;38.47;16.38;;;;;;;19.64;80.84;94886.94;5090447;28;20055;-73
2021/07/30 04:17:16;;;;;;;40.85;15.98;;;;;;;19.63;81.12;94890.63;5093722;28;20043;-73
2021/07/30 04:19:43;;;;;;;45.92;17.20;;;;;;;19.66;80.76;94887.44;5090967;28;20040;-72
2021/07/30 04:22:11;;;;;;;41.97;16.88;;;;;;;19.71;81.63;94880.50;5091766;28;20044;-73
2021/07/30 04:24:39;;;;;;;43.05;16.05;;;;;;;19.72;81.09;94884.72;5089218;28;20513;-73
2021/07/30 04:27:07;;;;;;;39.45;15.70;;;;;;;19.77;81.22;94888.09;5086683;28;20052;-73
2021/07/30 04:29:41;;;;;;;28.40;13.48;;;;;;;19.84;80.91;94885.06;5093565;28;20504;-73
2021/07/30 04:32:09;;;;;;;36.88;15.52;;;;;;;19.93;80.72;94888.63;5089332;28;20048;-73
2021/07/30 04:34:38;;;;;;;34.75;14.00;;;;;;;20.03;80.00;94893.75;5088053;28;20048;-73
2021/07/30 04:37:06;;;;;;;40.05;15.23;;;;;;;20.10;79.19;94887.34;5089174;28;20039;-74
2021/07/30 04:39:34;;;;;;;31.13;14.80;;;;;;;20.16;79.19;94875.59;5093220;28;20521;-73
2021/07/30 04:42:02;;;;;;;39.03;14.98;;;;;;;20.27;79.43;94892.06;5088711;28;20538;-74
2021/07/30 04:44:29;;;;;;;44.55;15.00;;;;;;;20.33;79.02;94891.69;5088287;28;20040;-73
2021/07/30 04:46:55;;;;;;;28.35;15.00;;;;;;;20.34;78.30;94885.31;5091989;28;20044;-72
2021/07/30 04:49:22;;;;;;;40.17;15.00;;;;;;;20.48;78.85;94892.50;5090195;28;20040;-74
2021/07/30 04:52:00;;;;;;;34.97;17.55;;;;;;;20.53;79.30;94879.97;5088495;28;20521;-74
2021/07/30 04:54:27;;;;;;;45.47;15.65;;;;;;;20.69;78.00;94883.16;5091602;28;20036;-74
2021/07/30 04:56:54;;;;;;;39.83;14.63;;;;;;;20.78;77.92;94891.97;5087071;28;20039;-74
2021/07/30 04:59:20;;;;;;;33.65;16.25;;;;;;;20.86;77.62;94889.72;5086903;28;20040;-73
2021/07/30 05:01:47;;;;;;;40.17;15.93;;;;;;;20.92;77.83;94892.00;5085384;28;20055;-74
2021/07/30 05:04:14;;;;;;;38.55;15.85;;;;;;;20.96;77.81;94886.88;5087533;28;20532;-74
2021/07/30 05:06:41;;;;;;;47.28;16.83;;;;;;;20.98;78.74;94884.72;5088468;28;20492;-74
2021/07/30 05:09:08;;;;;;;41.60;16.65;;;;;;;21.03;78.56;94887.28;5089861;28;20117;-74
2021/07/30 05:11:36;;;;;;;45.17;18.13;;;;;;;21.11;77.72;94889.22;5086590;28;20059;-73
2021/07/30 05:14:03;;;;;;;44.58;15.23;;;;;;;21.17;76.14;94898.63;5068316;28;20046;-73
2021/07/30 05:16:30;;;;;;;35.88;15.45;;;;;;;21.25;74.91;94888.41;5070264;28;20050;-74
2021/07/30 05:18:57;;;;;;;40.50;17.08;;;;;;;21.24;74.59;94895.56;5084330;28;20043;-73
2021/07/30 05:21:24;;;;;;;47.42;17.38;;;;;;;21.33;74.65;94896.44;5089133;28;20063;-73
2021/07/30 05:23:50;;;;;;;36.90;14.45;;;;;;;21.41;74.28;94902.91;5070134;28;20055;-73
2021/07/30 05:26:17;;;;;;;33.28;14.60;;;;;;;21.30;73.09;94897.06;5070144;28;20043;-73
2021/07/30 05:28:44;;;;;;;34.88;14.82;;;;;;;21.45;73.91;94892.50;5092130;28;20043;-73
2021/07/30 05:31:16;;;;;;;39.13;13.48;;;;;;;21.56;74.40;94897.31;5084627;28;20054;-73
2021/07/30 05:33:44;;;;;;;36.20;14.82;;;;;;;21.65;69.41;94888.66;5084557;28;20064;-73
2021/07/30 05:36:19;;;;;;;39.88;13.70;;;;;;;21.80;66.20;94898.91;5085891;28;20052;-73
2021/07/30 05:38:47;;;;;;;37.55;14.60;;;;;;;21.79;66.85;94883.28;5087479;28;20044;-74
2021/07/30 05:41:15;;;;;;;41.58;15.95;;;;;;;21.97;65.30;94892.97;5089024;28;20448;-73
2021/07/30 05:43:44;;;;;;;38.13;15.23;;;;;;;22.05;65.14;94894.88;5086187;28;20776;-73
2021/07/30 05:46:14;;;;;;;34.33;14.88;;;;;;;22.18;64.97;94898.53;5086118;28;20059;-73
2021/07/30 05:48:41;;;;;;;41.40;14.30;;;;;;;22.31;65.45;94905.69;5086753;28;20043;-73
2021/07/30 05:51:12;;;;;;;45.42;16.08;;;;;;;22.40;64.59;94902.28;5086935;28;20094;-73
2021/07/30 05:53:40;;;;;;;61.10;19.60;;;;;;;22.48;63.16;94899.69;5085074;28;20039;-73
2021/07/30 05:56:07;;;;;;;50.17;16.13;;;;;;;22.52;65.18;94899.84;5088012;28;20060;-72
2021/07/30 05:58:34;;;;;;;35.13;14.63;;;;;;;22.56;65.55;94895.50;5090318;28;20234;-72
2021/07/30 06:01:01;;;;;;;38.83;12.48;;;;;;;22.61;66.66;94900.69;5084664;28;20075;-72
2021/07/30 06:03:28;;;;;;;41.15;15.48;;;;;;;22.68;67.11;94901.03;5087244;28;20032;-73
2021/07/30 06:05:55;;;;;;;40.55;14.70;;;;;;;22.76;66.13;94896.06;5084198;28;20027;-73
2021/07/30 06:08:22;;;;;;;37.05;13.40;;;;;;;22.85;65.61;94889.72;5085805;28;20075;-73
2021/07/30 06:10:48;;;;;;;32.72;13.05;;;;;;;22.88;65.22;94877.69;5083016;28;20052;-73
2021/07/30 06:13:15;;;;;;;33.83;11.45;;;;;;;23.05;65.17;94893.69;5089760;28;20101;-73
2021/07/30 06:15:42;;;;;;;38.58;13.20;;;;;;;23.14;63.47;94896.38;5090413;28;20051;-74
2021/07/30 06:18:09;;;;;;;31.75;12.85;;;;;;;23.27;62.34;94897.34;5090780;28;20493;-73
2021/07/30 06:20:35;;;;;;;44.03;13.02;;;;;;;23.32;61.96;94894.53;5072790;28;20751;-73
2021/07/30 06:23:02;;;;;;;33.75;13.13;;;;;;;23.44;62.10;94894.72;5091889;28;20048;-73
2021/07/30 06:25:29;;;;;;;32.13;12.93;;;;;;;23.56;61.19;94901.31;5091192;28;20039;-73
2021/07/30 06:27:56;;;;;;;36.38;13.60;;;;;;;23.67;59.55;94902.56;5089996;28;20533;-73
2021/07/30 06:30:23;;;;;;;39.30;12.45;;;;;;;23.75;60.41;94893.81;5091966;28;20493;-72
2021/07/30 06:32:50;;;;;;;35.25;12.75;;;;;;;23.83;60.77;94903.69;5090218;28;20056;-73
2021/07/30 06:35:17;;;;;;;36.63;12.27;;;;;;;23.96;61.15;94898.50;5088245;28;20044;-73
2021/07/30 06:37:44;;;;;;;36.63;13.27;;;;;;;24.09;61.71;94892.22;5088199;28;20054;-72
2021/07/30 06:40:11;;;;;;;44.53;14.75;;;;;;;24.17;59.64;94888.78;5088076;28;20394;-72
2021/07/30 06:42:38;;;;;;;37.97;13.65;;;;;;;24.28;59.58;94891.13;5091187;28;20048;-72
2021/07/30 06:45:06;;;;;;;38.55;12.93;;;;;;;24.38;59.60;94890.78;5087789;28;20123;-73
2021/07/30 06:47:34;;;;;;;44.70;12.40;;;;;;;24.46;58.00;94895.31;5075594;28;20512;-73
2021/07/30 06:50:01;;;;;;;41.33;14.02;;;;;;;24.59;59.10;94898.88;5087634;28;20187;-72
2021/07/30 06:52:29;;;;;;;42.17;12.60;;;;;;;24.65;56.44;94886.19;5076005;28;20116;-73
2021/07/30 06:54:57;;;;;;;46.42;13.27;;;;;;;24.73;56.20;94896.81;5090550;28;20068;-74
2021/07/30 06:57:23;;;;;;;53.10;15.02;;;;;;;24.83;56.57;94902.88;5093332;28;20059;-74
2021/07/30 06:59:50;;;;;;;46.67;13.38;;;;;;;24.87;57.34;94899.28;5088763;28;20051;-74
2021/07/30 07:02:17;;;;;;;62.95;13.75;;;;;;;24.99;58.55;94896.72;5087303;28;20142;-74
2021/07/30 07:04:44;;;;;;;42.40;13.32;;;;;;;25.11;57.03;94893.34;5070022;28;20042;-71
2021/07/30 07:07:11;;;;;;;47.75;13.80;;;;;;;25.27;55.32;94896.28;5089159;28;20143;-71
2021/07/30 07:09:38;;;;;;;45.55;12.85;;;;;;;25.34;56.71;94901.88;5083044;28;20048;-73
2021/07/30 07:12:05;;;;;;;29.00;11.93;;;;;;;25.43;54.34;94901.03;5088496;28;20044;-71
2021/07/30 07:14:32;;;;;;;35.67;13.43;;;;;;;25.48;54.05;94895.50;5090301;28;20050;-72
2021/07/30 07:16:59;;;;;;;37.35;13.98;;;;;;;25.59;53.76;94891.38;5084210;28;20126;-72
2021/07/30 07:19:26;;;;;;;42.60;13.05;;;;;;;25.71;53.36;94893.31;5090391;28;20035;-72
2021/07/30 07:21:56;;;;;;;40.80;13.18;;;;;;;25.84;53.34;94883.47;5091130;28;20055;-71
2021/07/30 07:24:23;;;;;;;46.47;13.00;;;;;;;25.95;52.74;94882.00;5091418;28;20048;-72
2021/07/30 07:26:50;;;;;;;48.92;14.88;;;;;;;26.07;53.56;94884.72;5088416;28;20489;-73
2021/07/30 07:29:16;;;;;;;41.85;12.60;;;;;;;26.19;52.80;94880.53;5088065;28;20043;-73
2021/07/30 07:31:46;;;;;;;47.30;14.95;;;;;;;26.30;51.54;94877.09;5093647;28;20524;-70
2021/07/30 07:34:13;;;;;;;40.67;15.77;;;;;;;26.52;51.07;94878.63;5088363;28;20055;-73
2021/07/30 07:36:40;;;;;;;38.42;13.18;;;;;;;26.62;50.49;94871.31;5088348;28;20038;-73
2021/07/30 07:39:07;;;;;;;44.05;13.30;;;;;;;26.95;51.53;94884.56;5087978;28;20114;-73
2021/07/30 07:41:35;;;;;;;38.60;13.15;;;;;;;27.23;47.17;94884.69;5086836;28;20032;-73
2021/07/30 07:44:02;;;;;;;41.10;11.80;;;;;;;27.32;48.36;94881.91;5086558;28;20047;-74
2021/07/30 07:46:29;;;;;;;40.67;12.55;;;;;;;27.53;48.28;94881.78;5085875;28;20028;-73
2021/07/30 07:48:56;;;;;;;35.03;12.43;;;;;;;27.72;45.62;94877.72;5087262;28;20054;-74
2021/07/30 07:51:23;;;;;;;42.95;12.00;;;;;;;27.93;43.77;94880.22;5089123;28;20040;-73
2021/07/30 07:53:50;;;;;;;40.42;14.57;;;;;;;28.05;43.36;94874.81;5070030;28;20060;-73
2021/07/30 07:56:17;;;;;;;40.22;12.27;;;;;;;28.21;42.36;94869.50;5088507;28;20111;-73
2021/07/30 07:58:44;;;;;;;41.28;13.85;;;;;;;28.37;41.25;94878.34;5088200;28;20043;-73
2021/07/30 08:01:14;;;;;;;37.17;11.60;;;;;;;28.61;41.50;94868.63;5089519;28;20043;-73
2021/07/30 08:03:44;;;;;;;42.67;12.93;;;;;;;28.84;41.67;94870.69;5086970;28;20148;-73
2021/07/30 08:06:18;;;;;;;44.33;13.00;;;;;;;29.08;40.15;94870.50;5088342;28;20036;-72
2021/07/30 08:08:45;;;;;;;;;;;;;;;29.12;41.14;94866.00;5089337;28;20040;-73
2021/07/30 08:11:12;;;;;;;45.58;11.90;;;;;;;29.32;39.47;94874.13;5087541;28;19920;-73
2021/07/30 08:13:40;;;;;;;37.65;11.85;;;;;;;29.44;38.03;94865.97;5088303;28;20509;-73
2021/07/30 08:16:08;;;;;;;44.72;11.55;;;;;;;29.66;38.83;94866.41;5087774;28;20511;-74
2021/07/30 08:18:35;;;;;;;43.15;12.52;;;;;;;29.88;39.16;94862.28;5086501;28;20036;-73
2021/07/30 08:21:02;;;;;;;52.30;12.90;;;;;;;30.03;38.89;94869.47;5090893;28;20046;-73
2021/07/30 08:23:29;;;;;;;52.15;12.55;;;;;;;30.14;39.48;94869.66;5089792;28;20040;-73
2021/07/30 08:25:56;;;;;;;31.02;10.77;;;;;;;30.36;37.46;94864.69;5089331;28;20052;-72
2021/07/30 08:28:23;;;;;;;60.42;12.80;;;;;;;30.46;37.03;94858.75;5089255;28;20129;-73
2021/07/30 08:30:50;;;;;;;39.72;13.30;;;;;;;30.63;37.50;94852.91;5089335;28;20059;-73
2021/07/30 08:33:17;;;;;;;43.40;12.82;;;;;;;30.84;35.75;94863.22;5088840;28;20046;-73
2021/07/30 08:35:44;;;;;;;47.53;14.85;;;;;;;31.02;37.29;94852.75;5087371;28;20046;-73
2021/07/30 08:38:11;;;;;;;46.67;12.23;;;;;;;31.28;35.12;94848.53;5087594;28;20032;-74
2021/07/30 08:40:39;;;;;;;52.40;12.18;;;;;;;31.43;35.21;94850.25;5087251;28;20046;-73
2021/07/30 08:43:06;;;;;;;44.17;13.07;;;;;;;31.71;35.36;94842.94;5087506;28;20040;-74
2021/07/30 08:45:32;;;;;;;39.42;12.65;;;;;;;31.93;33.11;94841.28;5085890;28;20044;-73
2021/07/30 08:48:02;;;;;;;46.55;10.93;;;;;;;32.14;34.22;94841.53;5086381;28;20123;-74
2021/07/30 08:50:31;;;;;;;39.80;12.02;;;;;;;32.44;30.95;94835.25;5088292;28;20042;-74
2021/07/30 08:53:04;;;;;;;42.70;11.40;;;;;;;32.78;30.70;94837.88;5068716;28;20824;-74
2021/07/30 08:55:32;;;;;;;38.72;11.02;;;;;;;33.07;29.62;94830.75;5086668;28;20071;-74
2021/07/30 08:57:59;;;;;;;53.58;12.18;;;;;;;33.31;27.92;94826.72;5088509;28;20043;-74
2021/07/30 09:00:26;;;;;;;42.58;11.15;;;;;;;33.26;29.08;94818.19;5084569;28;20047;-74
2021/07/30 09:02:56;;;;;;;34.90;10.95;;;;;;;33.44;28.77;94824.47;5085673;28;20042;-74
2021/07/30 09:05:28;;;;;;;37.72;11.30;;;;;;;33.42;28.58;94825.97;5086666;28;20036;-73
2021/07/30 09:07:57;;;;;;;36.05;9.82;;;;;;;33.34;28.49;94823.25;5085618;28;20040;-74
2021/07/30 09:10:30;;;;;;;42.72;10.50;;;;;;;33.49;27.77;94820.59;5087875;28;20501;-74
2021/07/30 09:13:21;;;;;;;47.72;11.05;;;;;;;33.61;26.37;94817.59;5067475;28;20047;-74
2021/07/30 09:15:59;;;;;;;45.97;9.88;;;;;;;33.81;26.51;94809.19;5084918;28;20039;-73
2021/07/30 09:18:27;;;;;;;41.58;10.75;;;;;;;33.99;26.58;94804.59;5085935;28;20036;-75
2021/07/30 09:20:55;;;;;;;51.83;8.82;;;;;;;34.11;24.23;94808.13;5068381;28;20048;-74
2021/07/30 09:23:24;;;;;;;43.67;10.23;;;;;;;34.26;24.96;94801.59;5086063;28;20062;-74
2021/07/30 09:25:50;;;;;;;39.45;9.27;;;;;;;34.52;23.55;94803.19;5086112;28;20514;-74
2021/07/30 09:28:18;;;;;;;43.88;9.57;;;;;;;34.57;24.61;94794.66;5086248;28;20036;-74
2021/07/30 09:30:56;;;;;;;41.38;9.85;;;;;;;34.81;23.91;94787.72;5087417;28;20036;-74
2021/07/30 09:33:25;;;;;;;44.53;8.27;;;;;;;34.90;21.43;94790.03;5085786;28;20044;-74
2021/07/30 09:35:59;;;;;;;36.72;9.18;;;;;;;35.15;22.81;94795.41;5088330;28;20075;-74
2021/07/30 09:38:26;;;;;;;31.83;8.20;;;;;;;35.42;21.93;94784.91;5086703;28;20523;-74
2021/07/30 09:41:10;;;;;;;37.70;8.70;;;;;;;35.82;20.52;94784.75;5085755;28;20048;-74
2021/07/30 09:43:38;;;;;;;43.13;8.55;;;;;;;36.07;20.71;94781.09;5068888;28;20444;-73
2021/07/30 09:46:14;;;;;;;37.88;8.38;;;;;;;36.23;19.47;94778.72;5086650;28;20767;-74
2021/07/30 09:48:53;;;;;;;33.28;7.40;;;;;;;36.36;19.64;94781.72;5091712;28;20039;-74
2021/07/30 09:51:20;;;;;;;34.95;8.27;;;;;;;36.49;18.67;94780.06;5092466;28;20076;-74
2021/07/30 09:53:47;;;;;;;37.35;7.50;;;;;;;36.73;18.34;94772.94;5088697;28;20048;-74
2021/07/30 09:56:15;;;;;;;35.13;8.98;;;;;;;37.11;18.99;94774.88;5088584;28;20123;-74
2021/07/30 09:58:47;;;;;;;24.92;6.82;;;;;;;37.23;16.28;94776.34;5089890;28;20052;-74
2021/07/30 10:01:21;;;;;;;37.42;8.50;;;;;;;37.31;14.68;94766.91;5090980;28;20055;-74
2021/07/30 10:03:53;;;;;;;45.15;7.68;;;;;;;37.44;15.41;94775.31;5075412;28;20047;-73
2021/07/30 10:06:20;;;;;;;36.15;6.95;;;;;;;37.47;16.58;94769.84;5089546;28;20473;-74
2021/07/30 10:08:48;;;;;;;34.65;6.57;;;;;;;37.61;15.69;94768.13;5089550;28;20054;-74
2021/07/30 10:11:15;;;;;;;35.60;9.02;;;;;;;37.70;16.43;94765.69;5090380;28;20047;-74
2021/07/30 10:13:48;;;;;;;35.15;7.38;;;;;;;38.01;15.44;94757.50;5089393;28;20044;-74
2021/07/30 10:16:17;;;;;;;31.02;7.05;;;;;;;37.97;15.34;94762.22;5090321;28;20044;-74
2021/07/30 10:18:44;;;;;;;35.97;7.43;;;;;;;37.98;14.74;94752.91;5072767;28;20089;-74
2021/07/30 10:21:14;;;;;;;29.63;6.93;;;;;;;38.15;15.33;94746.44;5090235;28;20043;-74
2021/07/30 10:23:43;;;;;;;35.35;8.40;;;;;;;38.10;13.53;94749.63;5091854;28;20032;-73
2021/07/30 10:26:11;;;;;;;35.17;7.82;;;;;;;38.28;15.49;94748.59;5090249;28;20046;-74
2021/07/30 10:28:38;;;;;;;28.95;7.22;;;;;;;38.34;14.45;94741.50;5091693;28;20050;-74
2021/07/30 10:31:06;;;;;;;31.17;7.43;;;;;;;38.38;14.97;94744.94;5089911;28;20139;-73
2021/07/30 10:33:40;;;;;;;34.00;6.95;;;;;;;38.59;13.70;94735.66;5090002;28;20043;-74
2021/07/30 10:36:09;;;;;;;39.17;8.45;;;;;;;38.67;16.35;94730.88;5091350;28;20497;-74
2021/07/30 10:38:36;;;;;;;37.20;8.02;;;;;;;38.91;14.63;94732.38;5092722;28;20614;-74
2021/07/30 10:41:06;;;;;;;29.60;7.70;;;;;;;39.09;14.96;94739.47;5073043;28;20127;-74
2021/07/30 10:43:48;;;;;;;37.55;7.53;;;;;;;39.54;14.14;94725.34;5089476;28;20040;-73
2021/07/30 10:46:16;;;;;;;27.55;6.85;;;;;;;39.60;14.84;94720.97;5090005;28;20079;-74
2021/07/30 10:48:44;;;;;;;36.63;8.07;;;;;;;39.25;14.88;94717.75;5089332;28;20032;-74
2021/07/30 10:51:21;;;;;;;28.63;7.28;;;;;;;39.47;14.10;94720.06;5088300;28;20048;-74
2021/07/30 10:53:58;;;;;;;28.15;7.97;;;;;;;39.48;14.24;94727.06;5089482;28;20524;-74
2021/07/30 10:56:28;;;;;;;36.20;7.80;;;;;;;39.76;15.21;94715.53;5087622;28;20040;-74
2021/07/30 10:59:04;;;;;;;28.80;7.25;;;;;;;39.70;14.06;94711.75;5090259;28;20048;-74
2021/07/30 11:01:30;;;;;;;33.83;7.40;;;;;;;39.94;13.61;94708.94;5087089;28;20062;-74
2021/07/30 11:04:05;;;;;;;31.83;7.95;;;;;;;40.18;14.56;94706.06;5089408;28;20131;-73
2021/07/30 11:06:41;;;;;;;27.73;6.90;;;;;;;40.24;13.98;94698.88;5092554;28;20051;-74
2021/07/30 11:09:08;;;;;;;36.47;7.63;;;;;;;40.50;14.11;94708.03;5088315;28;20924;-74
2021/07/30 11:11:50;;;;;;;34.92;7.40;;;;;;;40.59;13.84;94707.38;5089293;28;20040;-74
2021/07/30 11:14:32;;;;;;;29.58;7.82;;;;;;;40.47;15.04;94695.22;5090779;28;20043;-74
2021/07/30 11:17:07;;;;;;;30.63;8.32;;;;;;;40.44;13.36;94701.53;5087157;28;20035;-74
2021/07/30 11:19:47;;;;;;;34.97;7.40;;;;;;;40.75;13.86;94687.47;5090402;28;20036;-74
2021/07/30 11:22:16;;;;;;;36.42;7.03;;;;;;;41.03;13.65;94685.97;5088734;28;20047;-73
2021/07/30 11:24:51;;;;;;;38.17;8.10;;;;;;;40.94;12.94;94688.56;5088966;28;20048;-74